Palm Beach Shores, Florida
Current Conditions -  °F | °C
As of 8:53 AM on Monday 20 Oct 2014 (Local Time) from KPBI Reporting Station
Broken Clouds Broken Clouds  
Wind Chill: 76°   Ceiling: 4400
Heat Index: 76°   Visibility: 10mi
Dew Point: 70°   Wind: 3mph
Humidity: 82%   Direction: 300°WNW
Pressure: 30.02"   Gusts: NA
Location:  26.7789°N, 80.0745°W
Report Text: KPBI 201253Z 30003KT 10SM SCT035 BKN044 BKN055 24/21 A3002 RMK AO2 SLP165 T02440211
Loading
Personal Weather Stations






























Interactive Weather Map
Tropical Storm Tracking
New forecast layout! Learn more

10-Day Weather Forecast

Advertisements
Track Severe Weather on mobile